createdAt,value
2022-08-28T00:01:09.282Z,12.33
2022-08-28T00:03:38.202Z,11.37
2022-08-28T00:06:07.011Z,14.30
2022-08-28T00:08:37.374Z,10.70
2022-08-28T00:11:06.110Z,10.77
2022-08-28T00:13:34.765Z,11.03
2022-08-28T00:16:03.239Z,10.47
2022-08-28T00:18:32.576Z,11.33
2022-08-28T00:21:01.638Z,14.20
2022-08-28T00:23:36.930Z,11.90
2022-08-28T00:26:32.896Z,12.47
2022-08-28T00:29:00.981Z,11.47
2022-08-28T00:31:29.546Z,9.40
2022-08-28T00:33:58.029Z,10.63
2022-08-28T00:36:27.066Z,12.27
2022-08-28T00:38:55.424Z,11.90
2022-08-28T00:41:27.532Z,10.73
2022-08-28T00:44:07.248Z,10.43
2022-08-28T00:46:35.690Z,12.27
2022-08-28T00:49:04.407Z,12.47
2022-08-28T00:51:50.937Z,11.17
2022-08-28T00:54:20.196Z,10.10
2022-08-28T00:56:50.456Z,9.33
2022-08-28T00:59:20.210Z,11.53
2022-08-28T01:01:49.773Z,12.63
2022-08-28T01:04:20.382Z,8.93
2022-08-28T01:06:51.386Z,14.30
2022-08-28T01:09:21.029Z,10.77
2022-08-28T01:11:51.601Z,12.23
2022-08-28T01:14:22.254Z,11.87
2022-08-28T01:16:53.061Z,12.13
2022-08-28T01:19:23.891Z,10.60
2022-08-28T01:21:55.358Z,9.63
2022-08-28T01:24:25.419Z,10.53
2022-08-28T01:26:53.848Z,13.77
2022-08-28T01:29:22.236Z,10.63
2022-08-28T01:31:50.644Z,12.60
2022-08-28T01:34:19.068Z,10.20
2022-08-28T01:36:47.788Z,9.50
2022-08-28T01:39:17.921Z,11.83
2022-08-28T01:41:48.750Z,9.17
2022-08-28T01:44:18.179Z,13.33
2022-08-28T01:46:47.518Z,12.30
2022-08-28T01:49:16.215Z,10.80
2022-08-28T01:51:44.926Z,10.30
2022-08-28T01:54:13.604Z,12.83
2022-08-28T01:56:43.019Z,9.97
2022-08-28T01:59:14.264Z,9.07
2022-08-28T02:01:43.765Z,9.97
2022-08-28T02:04:12.854Z,13.10
2022-08-28T02:06:41.327Z,11.67
2022-08-28T02:09:14.468Z,10.90
2022-08-28T02:11:44.383Z,11.07
2022-08-28T02:14:16.580Z,7.77
2022-08-28T02:16:45.144Z,9.63
2022-08-28T02:19:13.557Z,11.77
2022-08-28T02:21:42.534Z,10.43
2022-08-28T02:24:11.060Z,9.43
2022-08-28T02:26:39.500Z,10.70
2022-08-28T02:29:07.888Z,10.90
2022-08-28T02:31:37.722Z,9.27
2022-08-28T02:34:06.960Z,11.10
2022-08-28T02:36:35.381Z,14.57
2022-08-28T02:39:04.066Z,12.47
2022-08-28T02:41:32.499Z,12.43
2022-08-28T02:44:00.881Z,12.17
2022-08-28T02:46:29.416Z,10.33
2022-08-28T02:48:59.293Z,12.13
2022-08-28T02:51:27.774Z,11.93
2022-08-28T02:53:56.382Z,11.13
2022-08-28T02:56:24.793Z,11.50
2022-08-28T02:58:53.929Z,12.77
2022-08-28T03:01:25.337Z,12.47
2022-08-28T03:03:53.926Z,19.77
2022-08-28T03:06:23.962Z,9.77
2022-08-28T03:08:52.324Z,9.33
2022-08-28T03:11:20.935Z,14.57
2022-08-28T03:13:49.320Z,12.40
2022-08-28T03:16:18.008Z,12.33
2022-08-28T03:18:47.446Z,11.00
2022-08-28T03:21:15.852Z,11.50
2022-08-28T03:23:44.610Z,11.10
2022-08-28T03:26:14.314Z,9.00
2022-08-28T03:28:43.888Z,11.53
2022-08-28T03:31:14.727Z,9.40
2022-08-28T03:33:43.940Z,11.90
2022-08-28T03:36:14.762Z,12.53
2022-08-28T03:38:43.730Z,15.47
2022-08-28T03:41:14.634Z,13.60
2022-08-28T03:43:43.672Z,13.80
2022-08-28T03:46:15.622Z,12.63
2022-08-28T03:48:44.949Z,10.73
2022-08-28T03:51:14.479Z,13.57
2022-08-28T03:53:44.048Z,15.53
2022-08-28T03:56:15.016Z,10.77
2022-08-28T03:58:44.302Z,11.57
2022-08-28T04:01:12.848Z,8.40
2022-08-28T04:03:41.311Z,11.00
2022-08-28T04:06:09.743Z,9.10
2022-08-28T04:08:38.276Z,11.03
2022-08-28T04:11:07.254Z,9.13
2022-08-28T04:13:37.074Z,7.87
2022-08-28T04:16:07.902Z,13.87
2022-08-28T04:18:36.661Z,10.50
2022-08-28T04:21:08.033Z,8.03
2022-08-28T04:23:36.919Z,11.33
2022-08-28T04:26:06.057Z,12.90
2022-08-28T04:28:34.510Z,15.50
2022-08-28T04:31:04.866Z,9.20
2022-08-28T04:33:33.440Z,9.23
2022-08-28T04:36:03.935Z,8.87
2022-08-28T04:38:33.587Z,13.80
2022-08-28T04:41:05.654Z,9.37
2022-08-28T04:43:34.020Z,9.37
2022-08-28T04:46:07.280Z,9.93
2022-08-28T04:48:35.760Z,12.10
2022-08-28T04:51:06.737Z,11.37
2022-08-28T04:53:35.412Z,12.00
2022-08-28T04:56:04.795Z,8.57
2022-08-28T04:58:34.238Z,11.10
2022-08-28T05:01:08.803Z,9.93
2022-08-28T05:03:37.281Z,12.07
2022-08-28T05:06:06.261Z,12.90
2022-08-28T05:08:34.956Z,12.10
2022-08-28T05:11:11.699Z,8.67
2022-08-28T05:13:40.077Z,8.80
2022-08-28T05:16:10.171Z,9.23
2022-08-28T05:18:39.956Z,10.57
2022-08-28T05:21:14.534Z,11.57
2022-08-28T05:23:43.325Z,12.03
2022-08-28T05:26:13.296Z,11.70
2022-08-28T05:28:41.820Z,10.40
2022-08-28T05:31:12.396Z,9.97
2022-08-28T05:33:40.861Z,10.90
2022-08-28T05:36:10.119Z,10.87
2022-08-28T05:38:39.002Z,10.03
2022-08-28T05:41:07.541Z,11.23
2022-08-28T05:43:36.485Z,9.13
2022-08-28T05:46:07.637Z,11.83
2022-08-28T05:48:39.700Z,8.63
2022-08-28T05:51:08.510Z,8.93
2022-08-28T05:53:38.725Z,11.47
2022-08-28T05:56:07.426Z,8.97
2022-08-28T05:58:35.919Z,8.20
2022-08-28T06:01:08.225Z,11.53
2022-08-28T06:03:38.691Z,11.67
2022-08-28T06:06:07.317Z,8.33
2022-08-28T06:08:36.074Z,7.43
2022-08-28T06:11:05.351Z,9.90
2022-08-28T06:13:35.782Z,10.83
2022-08-28T06:16:06.577Z,8.53
2022-08-28T06:18:37.978Z,9.43
2022-08-28T06:21:06.459Z,10.20
2022-08-28T06:23:34.858Z,10.07
2022-08-28T06:26:03.322Z,7.43
2022-08-28T06:28:31.798Z,10.07
2022-08-28T06:31:23.407Z,7.70
2022-08-28T06:33:50.182Z,13.70
2022-08-28T06:36:18.840Z,8.20
2022-08-28T06:38:47.363Z,9.40
2022-08-28T06:41:16.154Z,10.93
2022-08-28T06:43:44.843Z,11.10
2022-08-28T06:46:13.506Z,11.00
2022-08-28T06:48:41.981Z,9.17
2022-08-28T06:51:13.199Z,8.80
2022-08-28T06:53:44.284Z,6.77
2022-08-28T06:56:25.623Z,7.90
2022-08-28T06:58:57.028Z,12.60
2022-08-28T07:01:29.206Z,9.93
2022-08-28T07:03:59.640Z,6.00
2022-08-28T07:06:30.210Z,8.37
2022-08-28T07:08:59.828Z,9.37
2022-08-28T07:11:29.319Z,8.00
2022-08-28T07:13:58.631Z,9.93
2022-08-28T07:16:28.258Z,7.00
2022-08-28T07:18:57.228Z,8.10
2022-08-28T07:21:26.404Z,10.63
2022-08-28T07:23:56.946Z,12.02
2022-08-28T07:26:27.940Z,6.97
2022-08-28T07:29:09.875Z,7.73
2022-08-28T07:31:42.105Z,8.10
2022-08-28T07:34:13.105Z,7.43
2022-08-28T07:36:43.647Z,8.52
2022-08-28T07:39:15.211Z,6.78
2022-08-28T07:41:44.506Z,5.32
2022-08-28T07:44:36.265Z,7.25
2022-08-28T07:47:06.103Z,9.15
2022-08-28T07:49:40.991Z,7.57
2022-08-28T07:52:13.360Z,6.93
2022-08-28T07:54:47.610Z,8.25
2022-08-28T07:57:25.969Z,7.40
2022-08-28T07:59:54.484Z,6.88
2022-08-28T08:02:22.947Z,5.38
2022-08-28T08:04:51.487Z,5.88
2022-08-28T08:07:20.722Z,8.25
2022-08-28T08:09:50.480Z,9.50
2022-08-28T08:12:19.070Z,6.45
2022-08-28T08:14:49.613Z,6.63
2022-08-28T08:17:18.034Z,6.28
2022-08-28T08:19:46.407Z,8.35
2022-08-28T08:22:14.875Z,7.70
2022-08-28T08:24:43.273Z,6.68
2022-08-28T08:27:13.268Z,8.40
2022-08-28T08:29:41.725Z,6.50
2022-08-28T08:32:12.442Z,7.85
2022-08-28T08:34:41.511Z,7.95
2022-08-28T08:37:10.610Z,6.85
2022-08-28T08:39:39.169Z,6.47
2022-08-28T08:42:09.613Z,6.00
2022-08-28T08:44:41.611Z,8.88
2022-08-28T08:47:14.596Z,7.60
2022-08-28T08:49:45.449Z,7.63
2022-08-28T08:52:28.303Z,8.52
2022-08-28T08:55:06.075Z,7.15
2022-08-28T08:57:35.530Z,5.32
2022-08-28T09:00:07.122Z,7.18
2022-08-28T09:02:39.031Z,8.52
2022-08-28T09:05:08.739Z,7.35
2022-08-28T09:07:39.531Z,5.72
2022-08-28T09:10:11.049Z,6.82
2022-08-28T09:12:49.648Z,7.03
2022-08-28T09:15:24.727Z,5.97
2022-08-28T09:17:54.915Z,8.43
2022-08-28T09:20:32.850Z,6.35
2022-08-28T09:23:12.782Z,6.82
2022-08-28T09:25:50.924Z,5.75
2022-08-28T09:28:21.445Z,5.53
2022-08-28T09:30:56.782Z,7.18
2022-08-28T09:33:32.151Z,8.60
2022-08-28T09:36:14.075Z,6.18
2022-08-28T09:38:42.487Z,7.72
2022-08-28T09:41:30.350Z,5.90
2022-08-28T09:43:58.826Z,8.98
2022-08-28T09:46:31.205Z,7.43
2022-08-28T09:49:09.400Z,6.32
2022-08-28T09:51:39.418Z,6.75
2022-08-28T09:54:09.988Z,6.40
2022-08-28T09:56:39.994Z,6.18
2022-08-28T09:59:09.270Z,7.43
2022-08-28T10:01:45.413Z,7.65
2022-08-28T10:04:22.199Z,6.50
2022-08-28T10:06:53.384Z,8.43
2022-08-28T10:09:26.472Z,4.90
2022-08-28T10:11:57.977Z,4.35
2022-08-28T10:14:33.256Z,6.18
2022-08-28T10:17:08.303Z,7.10
2022-08-28T10:19:41.924Z,7.22
2022-08-28T10:22:19.524Z,5.72
2022-08-28T10:24:55.055Z,4.72
2022-08-28T10:27:30.483Z,6.65
2022-08-28T10:30:06.942Z,7.85
2022-08-28T10:32:52.930Z,7.45
2022-08-28T10:35:23.624Z,4.97
2022-08-28T10:37:58.501Z,5.72
2022-08-28T10:40:29.788Z,6.38
2022-08-28T10:43:02.093Z,6.00
2022-08-28T10:45:31.491Z,6.30
2022-08-28T10:48:02.957Z,7.28
2022-08-28T10:50:33.367Z,5.88
2022-08-28T10:53:04.467Z,6.65
2022-08-28T10:55:36.613Z,8.60
2022-08-28T10:58:24.312Z,4.85
2022-08-28T11:00:55.048Z,6.55
2022-08-28T11:03:35.128Z,6.22
2022-08-28T11:06:05.933Z,3.60
2022-08-28T11:08:35.688Z,3.83
2022-08-28T11:11:05.466Z,5.45
2022-08-28T11:13:46.547Z,5.90
2022-08-28T11:16:20.069Z,5.63
2022-08-28T11:19:01.977Z,5.53
2022-08-28T11:21:31.943Z,3.72
2022-08-28T11:24:03.328Z,6.53
2022-08-28T11:26:34.636Z,5.32
2022-08-28T11:29:04.207Z,4.90
2022-08-28T11:31:42.551Z,3.75
2022-08-28T11:34:32.568Z,6.28
2022-08-28T11:37:02.952Z,4.35
2022-08-28T11:39:31.615Z,5.72
2022-08-28T11:42:32.290Z,3.47
2022-08-28T11:45:01.874Z,5.95
2022-08-28T11:47:49.091Z,4.78
2022-08-28T11:50:23.934Z,7.78
2022-08-28T11:53:08.366Z,4.47
2022-08-28T11:55:46.364Z,5.93
2022-08-28T11:58:18.886Z,4.47
2022-08-28T12:00:52.879Z,5.72
2022-08-28T12:03:28.851Z,5.38
2022-08-28T12:05:59.266Z,4.38
2022-08-28T12:08:46.655Z,3.78
2022-08-28T12:11:35.954Z,4.03
2022-08-28T12:14:05.079Z,4.63
2022-08-28T12:16:55.791Z,4.20
2022-08-28T12:19:29.388Z,3.65
2022-08-28T12:21:59.552Z,6.88
2022-08-28T12:24:28.785Z,5.18
2022-08-28T12:26:58.338Z,4.10
2022-08-28T12:29:30.466Z,4.30
2022-08-28T12:32:18.712Z,4.53
2022-08-28T12:34:50.244Z,5.32
2022-08-28T12:37:26.677Z,3.03
2022-08-28T12:39:56.745Z,4.75
2022-08-28T12:42:27.135Z,5.63
2022-08-28T12:45:01.215Z,6.07
2022-08-28T12:47:29.687Z,4.18
2022-08-28T12:49:58.505Z,3.72
2022-08-28T12:52:28.333Z,5.68
2022-08-28T12:54:58.220Z,4.63
2022-08-28T12:57:26.714Z,3.90
2022-08-28T12:59:55.864Z,3.60
2022-08-28T13:02:27.137Z,5.68
2022-08-28T13:04:57.644Z,4.50
2022-08-28T13:07:31.091Z,6.28
2022-08-28T13:10:01.454Z,5.45
2022-08-28T13:12:55.155Z,4.63
2022-08-28T13:15:37.265Z,4.05
2022-08-28T13:18:05.859Z,4.35
2022-08-28T13:20:35.426Z,4.22
2022-08-28T13:23:06.245Z,6.40
2022-08-28T13:25:35.488Z,5.15
2022-08-28T13:28:17.748Z,4.70
2022-08-28T13:31:02.326Z,4.97
2022-08-28T13:33:47.763Z,5.20
2022-08-28T13:36:25.813Z,5.25
2022-08-28T13:39:00.531Z,3.40
2022-08-28T13:41:38.682Z,3.65
2022-08-28T13:44:14.792Z,3.45
2022-08-28T13:47:00.909Z,4.47
2022-08-28T13:49:34.385Z,4.32
2022-08-28T13:52:08.168Z,4.57
2022-08-28T13:54:51.393Z,4.05
2022-08-28T13:57:32.650Z,4.47
2022-08-28T14:00:17.804Z,5.47
2022-08-28T14:03:17.610Z,4.60
2022-08-28T14:05:57.015Z,2.85
2022-08-28T14:08:35.738Z,4.85
2022-08-28T14:11:13.198Z,5.05
2022-08-28T14:13:55.506Z,5.03
2022-08-28T14:16:24.778Z,4.97
2022-08-28T14:18:53.951Z,3.63
2022-08-28T14:21:26.072Z,3.85
2022-08-28T14:23:54.519Z,3.45
2022-08-28T14:26:24.280Z,4.32
2022-08-28T14:28:52.796Z,4.93
2022-08-28T14:31:21.255Z,4.85
2022-08-28T14:33:55.032Z,3.45
2022-08-28T14:36:24.687Z,4.60
2022-08-28T14:38:54.385Z,3.95
2022-08-28T14:41:24.518Z,5.50
2022-08-28T14:43:53.507Z,5.38
2022-08-28T14:46:22.891Z,7.32
2022-08-28T14:48:51.831Z,4.70
2022-08-28T14:51:20.592Z,3.47
2022-08-28T14:53:49.972Z,4.45
2022-08-28T14:56:18.377Z,4.85
2022-08-28T14:58:48.240Z,5.57
2022-08-28T15:01:23.472Z,5.68
2022-08-28T15:03:52.930Z,4.70
2022-08-28T15:06:21.376Z,4.10
2022-08-28T15:08:50.095Z,3.95
2022-08-28T15:11:20.023Z,4.32
2022-08-28T15:13:50.642Z,5.35
2022-08-28T15:16:20.338Z,4.47
2022-08-28T15:18:49.014Z,8.82
2022-08-28T15:21:18.229Z,2.40
2022-08-28T15:23:46.733Z,4.32
2022-08-28T15:26:16.067Z,4.25
2022-08-28T15:28:44.545Z,4.10
2022-08-28T15:31:15.405Z,3.33
2022-08-28T15:33:45.474Z,4.47
2022-08-28T15:36:14.056Z,3.58
2022-08-28T15:39:00.099Z,2.63
2022-08-28T15:41:29.405Z,4.03
2022-08-28T15:44:00.189Z,4.68
2022-08-28T15:46:31.505Z,5.63
2022-08-28T15:49:00.008Z,4.53
2022-08-28T15:51:29.475Z,3.95
2022-08-28T15:53:58.950Z,4.15
2022-08-28T15:56:27.823Z,3.85
2022-08-28T15:58:56.260Z,5.38
2022-08-28T16:01:24.739Z,4.28
2022-08-28T16:03:54.592Z,5.78
2022-08-28T16:06:24.032Z,8.10
2022-08-28T16:08:52.512Z,5.40
2022-08-28T16:11:24.856Z,7.00
2022-08-28T16:13:56.264Z,5.05
2022-08-28T16:16:25.563Z,5.47
2022-08-28T16:18:58.677Z,6.15
2022-08-28T16:21:28.144Z,5.20
2022-08-28T16:23:56.820Z,4.72
2022-08-28T16:26:25.610Z,4.90
2022-08-28T16:28:54.044Z,4.32
2022-08-28T16:31:22.821Z,8.07
2022-08-28T16:33:51.613Z,4.93
2022-08-28T16:36:23.705Z,6.20
2022-08-28T16:38:59.653Z,4.45
2022-08-28T16:41:32.579Z,6.30
2022-08-28T16:44:01.768Z,5.85
2022-08-28T16:46:30.673Z,4.90
2022-08-28T16:48:59.687Z,7.63
2022-08-28T16:51:29.852Z,5.13
2022-08-28T16:53:58.703Z,5.45
2022-08-28T16:56:27.165Z,4.30
2022-08-28T16:58:56.232Z,4.00
2022-08-28T17:01:25.451Z,4.90
2022-08-28T17:03:54.602Z,6.25
2022-08-28T17:06:24.473Z,5.32
2022-08-28T17:08:57.184Z,3.97
2022-08-28T17:11:26.324Z,4.57
2022-08-28T17:13:55.461Z,6.35
2022-08-28T17:16:25.381Z,5.28
2022-08-28T17:18:54.383Z,4.90
2022-08-28T17:21:40.741Z,3.97
2022-08-28T17:24:12.357Z,6.70
2022-08-28T17:26:41.438Z,6.18
2022-08-28T17:29:09.955Z,6.15
2022-08-28T17:31:38.730Z,7.45
2022-08-28T17:34:08.274Z,4.40
2022-08-28T17:36:37.407Z,3.38
2022-08-28T17:39:08.162Z,4.25
2022-08-28T17:41:37.921Z,4.65
2022-08-28T17:44:06.685Z,5.85
2022-08-28T17:46:37.893Z,6.10
2022-08-28T17:49:07.302Z,5.72
2022-08-28T17:51:42.387Z,5.28
2022-08-28T17:54:18.811Z,4.75
2022-08-28T17:56:48.799Z,4.93
2022-08-28T17:59:17.655Z,6.85
2022-08-28T18:01:47.229Z,6.95
2022-08-28T18:04:21.629Z,6.53
2022-08-28T18:06:54.342Z,5.25
2022-08-28T18:09:23.652Z,4.03
2022-08-28T18:11:53.635Z,8.20
2022-08-28T18:14:22.186Z,5.03
2022-08-28T18:16:50.634Z,7.57
2022-08-28T18:19:19.201Z,6.53
2022-08-28T18:21:47.795Z,7.18
2022-08-28T18:24:16.840Z,6.18
2022-08-28T18:26:47.387Z,7.65
2022-08-28T18:29:17.303Z,9.23
2022-08-28T18:31:45.784Z,6.10
2022-08-28T18:34:17.508Z,6.80
2022-08-28T18:36:45.958Z,7.18
2022-08-28T18:39:15.095Z,10.05
2022-08-28T18:41:51.329Z,6.35
2022-08-28T18:44:24.157Z,8.00
2022-08-28T18:46:53.223Z,8.45
2022-08-28T18:49:21.791Z,7.63
2022-08-28T18:51:50.251Z,8.60
2022-08-28T18:54:23.199Z,9.02
2022-08-28T18:56:59.599Z,6.10
2022-08-28T18:59:34.501Z,7.47
2022-08-28T19:02:03.556Z,7.65
2022-08-28T19:04:32.720Z,8.55
2022-08-28T19:07:01.114Z,8.63
2022-08-28T19:09:32.415Z,9.40
2022-08-28T19:12:02.777Z,8.13
2022-08-28T19:14:31.396Z,8.52
2022-08-28T19:17:01.534Z,11.38
2022-08-28T19:19:30.151Z,9.82
2022-08-28T19:21:59.083Z,8.32
2022-08-28T19:24:31.039Z,9.15
2022-08-28T19:26:59.421Z,9.35
2022-08-28T19:29:28.014Z,7.82
2022-08-28T19:31:56.929Z,9.07
2022-08-28T19:34:27.036Z,8.65
2022-08-28T19:36:55.407Z,7.97
2022-08-28T19:39:27.783Z,6.60
2022-08-28T19:41:56.729Z,8.60
2022-08-28T19:44:25.171Z,7.97
2022-08-28T19:46:53.974Z,10.93
2022-08-28T19:49:22.410Z,6.73
2022-08-28T19:51:52.535Z,8.57
2022-08-28T19:54:21.080Z,7.10
2022-08-28T19:56:49.735Z,6.47
2022-08-28T19:59:18.191Z,8.10
2022-08-28T20:01:47.289Z,10.20
2022-08-28T20:04:17.775Z,8.48
2022-08-28T20:06:46.836Z,6.43
2022-08-28T20:09:18.386Z,8.57
2022-08-28T20:11:47.286Z,7.67
2022-08-28T20:14:16.478Z,8.10
2022-08-28T20:16:46.190Z,6.30
2022-08-28T20:19:15.012Z,5.80
2022-08-28T20:21:44.773Z,5.13
2022-08-28T20:24:14.805Z,7.03
2022-08-28T20:26:44.563Z,8.40
2022-08-28T20:29:13.380Z,6.63
2022-08-28T20:31:42.710Z,9.80
2022-08-28T20:34:12.290Z,9.57
2022-08-28T20:36:40.668Z,7.80
2022-08-28T20:39:09.585Z,8.27
2022-08-28T20:41:38.486Z,8.57
2022-08-28T20:44:09.351Z,10.63
2022-08-28T20:46:41.382Z,6.90
2022-08-28T20:49:10.756Z,7.03
2022-08-28T20:51:56.416Z,8.50
2022-08-28T20:54:26.044Z,11.50
2022-08-28T20:56:55.050Z,6.83
2022-08-28T20:59:28.936Z,8.60
2022-08-28T21:02:08.620Z,11.03
2022-08-28T21:04:38.873Z,6.53
2022-08-28T21:07:07.558Z,8.17
2022-08-28T21:09:51.569Z,7.20
2022-08-28T21:12:24.799Z,5.20
2022-08-28T21:14:54.802Z,9.17
2022-08-28T21:17:29.991Z,7.37
2022-08-28T21:20:00.203Z,7.13
2022-08-28T21:22:28.996Z,6.03
2022-08-28T21:24:57.417Z,6.17
2022-08-28T21:27:25.801Z,8.57
2022-08-28T21:29:58.409Z,9.67
2022-08-28T21:32:26.915Z,6.23
2022-08-28T21:34:55.381Z,6.77
2022-08-28T21:37:24.118Z,8.00
2022-08-28T21:39:53.791Z,9.20
2022-08-28T21:42:25.304Z,6.03
2022-08-28T21:44:54.624Z,11.10
2022-08-28T21:47:24.855Z,10.63
2022-08-28T21:49:54.291Z,6.97
2022-08-28T21:52:24.141Z,9.63
2022-08-28T21:54:57.578Z,7.33
2022-08-28T21:57:25.960Z,9.13
2022-08-28T21:59:54.368Z,8.40
2022-08-28T22:02:24.415Z,6.77
2022-08-28T22:04:53.865Z,7.80
2022-08-28T22:07:22.524Z,8.90
2022-08-28T22:09:51.591Z,5.70
2022-08-28T22:12:20.015Z,5.97
2022-08-28T22:14:48.450Z,6.73
2022-08-28T22:17:16.837Z,6.47
2022-08-28T22:19:46.976Z,7.73
2022-08-28T22:22:32.901Z,11.13
2022-08-28T22:25:01.335Z,7.57
2022-08-28T22:27:31.876Z,10.80
2022-08-28T22:30:00.938Z,9.90
2022-08-28T22:32:29.454Z,8.97
2022-08-28T22:34:59.294Z,8.27
2022-08-28T22:37:27.842Z,7.70
2022-08-28T22:39:56.292Z,7.97
2022-08-28T22:42:24.723Z,7.30
2022-08-28T22:44:53.139Z,7.23
2022-08-28T22:47:21.548Z,5.73
2022-08-28T22:49:50.047Z,7.70
2022-08-28T22:52:19.803Z,8.93
2022-08-28T22:54:52.293Z,7.17
2022-08-28T22:57:21.810Z,7.57
2022-08-28T22:59:50.461Z,8.27
2022-08-28T23:02:19.617Z,6.27
2022-08-28T23:04:52.120Z,7.07
2022-08-28T23:07:22.339Z,11.20
2022-08-28T23:09:50.753Z,7.97
2022-08-28T23:12:19.430Z,7.07
2022-08-28T23:14:48.815Z,6.97
2022-08-28T23:17:17.949Z,6.77
2022-08-28T23:19:47.818Z,6.43
2022-08-28T23:22:16.607Z,6.87
2022-08-28T23:24:47.374Z,9.10
2022-08-28T23:27:35.371Z,8.40
2022-08-28T23:30:04.354Z,8.13
2022-08-28T23:32:34.180Z,7.67
2022-08-28T23:35:02.688Z,9.20
2022-08-28T23:37:35.789Z,7.37
2022-08-28T23:40:06.859Z,8.43
2022-08-28T23:42:35.457Z,8.50
2022-08-28T23:45:05.062Z,9.80
2022-08-28T23:47:33.680Z,7.17
2022-08-28T23:50:10.183Z,7.57
2022-08-28T23:52:38.611Z,6.33
2022-08-28T23:55:09.317Z,11.57
2022-08-28T23:57:38.433Z,7.27
